Time;durP1;ratioP1;P1;durP2;ratioP2;P2;SDS_P1;SDS_P2;PMS_P1;PMS_P2;Temp;Humidity;BMP_temperature;BMP_pressure;BME280_temperature;BME280_humidity;BME280_pressure;Samples;Min_cycle;Max_cycle;Signal;HPM_P1;HPM_P2
2022/01/17 00:02:00;;;;;;;53.08;22.98;;;;;;;2.95;91.34;99386.38;8267072;28;20053;-73
2022/01/17 00:06:01;;;;;;;52.03;21.70;;;;;;;3.00;91.20;99398.97;8301116;28;20057;-73
2022/01/17 00:10:03;;;;;;;32.30;12.20;;;;;;;3.02;90.95;99396.03;8300907;28;20137;-73
2022/01/17 00:14:10;;;;;;;53.75;23.27;;;;;;;3.02;90.79;99380.03;8282988;28;20050;-72
2022/01/17 00:22:14;;;;;;;48.38;20.52;;;;;;;3.14;89.81;99362.00;8301092;28;20053;-72
2022/01/17 00:26:15;;;;;;;44.83;19.50;;;;;;;3.10;89.82;99356.38;8299457;28;20049;-73
2022/01/17 00:30:16;;;;;;;45.63;18.77;;;;;;;3.01;90.61;99341.09;8300807;28;20057;-73
2022/01/17 00:34:16;;;;;;;42.22;15.88;;;;;;;3.08;90.29;99363.00;8283339;28;20068;-73
2022/01/17 00:38:17;;;;;;;45.90;20.30;;;;;;;3.15;89.97;99344.94;8300626;28;20212;-74
2022/01/17 00:42:18;;;;;;;45.45;20.02;;;;;;;3.21;89.76;99330.56;8300124;28;20141;-72
2022/01/17 00:46:19;;;;;;;38.33;16.10;;;;;;;3.26;89.58;99333.28;8299336;28;20038;-72
2022/01/17 00:50:20;;;;;;;41.28;19.80;;;;;;;3.19;90.24;99332.69;8264966;28;20041;-72
2022/01/17 00:54:21;;;;;;;33.90;15.45;;;;;;;3.19;90.68;99327.34;8299910;28;20565;-72
2022/01/17 00:58:21;;;;;;;38.13;17.75;;;;;;;3.22;90.84;99329.53;8281469;28;20084;-72
2022/01/17 01:02:22;;;;;;;48.42;20.80;;;;;;;3.27;90.65;99329.56;8299687;28;20053;-72
2022/01/17 01:06:23;;;;;;;38.08;17.42;;;;;;;3.26;91.27;99317.25;8299211;28;20586;-72
2022/01/17 01:10:25;;;;;;;38.05;14.68;;;;;;;3.25;91.66;99321.00;8299508;28;20294;-73
2022/01/17 01:14:26;;;;;;;41.75;17.70;;;;;;;3.20;92.16;99312.94;8299271;28;20152;-72
2022/01/17 01:31:19;;;;;;;39.42;18.30;;;;;;;3.17;92.23;99302.78;8298593;28;20049;-72
2022/01/17 01:35:23;;;;;;;35.15;16.65;;;;;;;3.12;92.01;99289.41;8298725;28;20062;-73
2022/01/17 01:39:24;;;;;;;38.22;17.20;;;;;;;3.15;91.85;99294.22;8298431;28;20096;-73
2022/01/17 01:43:25;;;;;;;34.90;15.30;;;;;;;3.23;91.11;99280.41;8298023;28;20054;-73
2022/01/17 01:47:27;;;;;;;33.55;14.27;;;;;;;3.18;91.30;99267.00;8298538;28;20046;-73
2022/01/17 01:51:28;;;;;;;34.65;16.00;;;;;;;3.27;90.01;99265.50;8298630;28;20054;-74
2022/01/17 01:55:28;;;;;;;37.95;16.70;;;;;;;3.24;90.69;99260.66;8297818;28;20298;-73
2022/01/17 01:59:30;;;;;;;27.13;11.30;;;;;;;3.26;90.20;99258.53;8297131;28;20411;-73
2022/01/17 02:03:30;;;;;;;28.58;13.38;;;;;;;3.33;89.95;99259.13;8298066;28;20456;-72
2022/01/17 02:07:31;;;;;;;30.42;13.35;;;;;;;3.32;90.01;99249.50;8297847;28;20052;-73
2022/01/17 02:11:36;;;;;;;24.98;11.88;;;;;;;3.43;88.91;99242.38;8297340;28;20081;-73
2022/01/17 02:15:38;;;;;;;34.50;16.40;;;;;;;3.34;90.18;99234.03;8297545;28;20501;-72
2022/01/17 02:19:45;;;;;;;29.85;12.20;;;;;;;3.45;89.60;99225.00;8297151;28;20057;-72
2022/01/17 02:23:48;;;;;;;32.30;14.83;;;;;;;3.43;89.35;99208.47;8297096;28;20061;-72
2022/01/17 02:27:49;;;;;;;23.75;9.57;;;;;;;3.43;89.63;99216.47;8296386;28;20057;-72
2022/01/17 02:31:50;;;;;;;24.05;9.60;;;;;;;3.47;89.81;99212.22;8297141;28;20068;-73
2022/01/17 02:35:51;;;;;;;25.83;13.35;;;;;;;3.43;90.39;99211.13;8296554;28;20076;-73
2022/01/17 02:39:52;;;;;;;27.75;13.93;;;;;;;3.49;90.07;99204.75;8297076;28;20116;-73
2022/01/17 02:43:52;;;;;;;30.60;14.57;;;;;;;3.34;91.19;99185.97;8296770;28;20128;-72
2022/01/17 02:47:53;;;;;;;23.70;11.55;;;;;;;3.36;91.88;99199.88;8296924;28;20060;-73
2022/01/17 02:51:55;;;;;;;24.77;11.02;;;;;;;3.45;91.51;99192.97;8295911;28;20077;-73
2022/01/17 02:56:07;;;;;;;28.77;15.05;;;;;;;3.46;91.61;99183.91;8296342;28;20100;-72
2022/01/17 03:00:13;;;;;;;28.30;12.10;;;;;;;3.38;92.41;99181.75;8295187;28;20115;-74
2022/01/17 03:04:14;;;;;;;27.88;13.18;;;;;;;3.44;92.23;99175.34;8277969;28;20057;-73
2022/01/17 03:08:15;;;;;;;27.35;13.98;;;;;;;3.47;91.81;99180.19;8295428;28;20153;-73
2022/01/17 03:12:16;;;;;;;26.83;13.82;;;;;;;3.46;91.62;99178.56;8295919;28;20050;-73
2022/01/17 03:16:21;;;;;;;30.00;11.02;;;;;;;3.54;90.51;99170.06;8296267;28;20266;-72
2022/01/17 03:20:22;;;;;;;30.40;14.18;;;;;;;3.53;90.60;99163.13;8296227;28;20061;-72
2022/01/17 03:24:23;;;;;;;18.60;8.70;;;;;;;3.57;90.00;99174.88;8295661;28;20159;-72
2022/01/17 03:28:25;;;;;;;30.45;13.68;;;;;;;3.67;89.22;99142.88;8295564;28;20057;-72
2022/01/17 03:32:25;;;;;;;28.40;12.60;;;;;;;3.68;89.29;99155.16;8295934;28;20079;-72
2022/01/17 03:36:27;;;;;;;24.33;12.07;;;;;;;3.68;89.58;99144.47;8295832;28;20062;-73
2022/01/17 03:40:27;;;;;;;29.95;15.27;;;;;;;3.65;89.70;99142.31;8296057;28;20103;-73
2022/01/17 03:44:28;;;;;;;27.95;13.77;;;;;;;3.72;89.20;99139.41;8295455;28;20464;-72
2022/01/17 03:48:29;;;;;;;31.90;14.68;;;;;;;3.70;89.48;99142.34;8295362;28;20128;-74
2022/01/17 03:52:30;;;;;;;26.00;12.20;;;;;;;3.71;89.29;99138.59;8295398;28;20058;-73
2022/01/17 03:56:31;;;;;;;36.70;16.17;;;;;;;3.78;88.75;99123.13;8277115;28;20116;-72
2022/01/17 04:00:41;;;;;;;27.40;14.32;;;;;;;3.79;88.45;99143.44;8295493;28;20045;-73
2022/01/17 04:04:41;;;;;;;31.73;14.07;;;;;;;3.82;88.15;99140.22;8295243;28;20061;-73
2022/01/17 04:08:42;;;;;;;29.38;14.57;;;;;;;3.82;88.21;99113.53;8295473;28;20050;-72
2022/01/17 04:12:44;;;;;;;23.70;11.18;;;;;;;3.83;88.25;99107.13;8295100;28;20052;-74
2022/01/17 04:16:45;;;;;;;22.92;11.00;;;;;;;3.87;87.74;99087.88;8295276;28;20100;-72
2022/01/17 04:20:45;;;;;;;30.35;13.68;;;;;;;3.85;87.78;99084.69;8298546;28;20073;-72
2022/01/17 04:24:46;;;;;;;29.02;12.95;;;;;;;3.82;87.64;99076.13;8300684;28;20057;-73
2022/01/17 04:28:47;;;;;;;29.05;13.27;;;;;;;3.87;87.34;99061.16;8300069;28;20075;-72
2022/01/17 04:32:48;;;;;;;29.70;12.95;;;;;;;3.94;86.89;99061.72;8300005;28;20046;-73
2022/01/17 04:36:49;;;;;;;31.77;12.18;;;;;;;3.97;86.41;99061.97;8299100;28;20417;-73
2022/01/17 04:41:01;;;;;;;25.58;10.35;;;;;;;3.91;86.97;99078.28;8298738;28;20045;-72
2022/01/17 04:45:07;;;;;;;25.65;10.50;;;;;;;3.83;87.28;99056.38;8299970;28;20049;-73
2022/01/17 04:49:08;;;;;;;13.98;6.13;;;;;;;3.94;86.20;99072.41;8298798;28;20054;-72
2022/01/17 04:53:11;;;;;;;19.40;9.18;;;;;;;3.97;85.63;99066.50;8299311;28;20088;-72
2022/01/17 04:57:13;;;;;;;23.63;8.60;;;;;;;4.01;85.18;99054.25;8299682;28;20072;-73
2022/01/17 05:01:13;;;;;;;15.35;5.72;;;;;;;4.08;84.40;99046.75;8299683;28;20583;-72
2022/01/17 05:05:15;;;;;;;17.52;6.82;;;;;;;4.10;84.09;99071.34;8299085;28;20108;-72
2022/01/17 05:09:16;;;;;;;17.30;7.32;;;;;;;4.07;84.48;99050.50;8299198;28;20046;-72
2022/01/17 05:13:21;;;;;;;22.55;9.48;;;;;;;4.15;84.17;99047.28;8299284;28;20061;-72
2022/01/17 05:17:37;;;;;;;21.88;9.15;;;;;;;4.13;84.21;99049.41;8299056;28;20115;-73
2022/01/17 05:21:38;;;;;;;12.23;5.60;;;;;;;4.16;84.24;99056.91;8298921;28;20042;-72
2022/01/17 05:25:39;;;;;;;21.17;8.02;;;;;;;4.15;84.43;99044.59;8297380;28;20528;-72
2022/01/17 05:29:43;;;;;;;13.88;6.15;;;;;;;4.17;84.84;99047.84;8262965;28;20058;-72
2022/01/17 05:33:44;;;;;;;19.75;8.40;;;;;;;4.07;86.05;99050.50;8281504;28;20061;-71
2022/01/17 05:37:46;;;;;;;15.02;6.55;;;;;;;4.02;87.08;99048.59;8296303;28;20046;-72
2022/01/17 05:41:47;;;;;;;17.60;7.68;;;;;;;4.07;87.34;99053.19;8298496;28;20132;-73
2022/01/17 05:45:47;;;;;;;18.50;7.05;;;;;;;3.93;89.16;99038.72;8298172;28;20478;-72
2022/01/17 05:49:48;;;;;;;21.85;9.82;;;;;;;3.86;90.40;99047.00;8298417;28;20482;-72
2022/01/17 05:53:49;;;;;;;19.70;9.48;;;;;;;3.83;91.03;99035.00;8297983;28;20069;-72
2022/01/17 05:57:50;;;;;;;22.73;9.50;;;;;;;3.68;92.47;99034.97;8298267;28;20042;-72
2022/01/17 06:01:51;;;;;;;19.73;7.60;;;;;;;3.77;91.47;99044.06;8298070;28;20370;-72
2022/01/17 06:05:57;;;;;;;17.15;8.23;;;;;;;3.73;92.49;99034.97;8297889;28;20078;-72
2022/01/17 06:09:58;;;;;;;14.50;7.13;;;;;;;3.72;92.18;99006.66;8264011;28;20453;-72
2022/01/17 06:13:59;;;;;;;22.25;8.88;;;;;;;3.73;92.33;99018.97;8296479;28;20054;-72
2022/01/17 06:18:00;;;;;;;16.55;6.93;;;;;;;3.83;91.59;98986.91;8297360;28;20050;-72
2022/01/17 06:22:04;;;;;;;19.13;8.93;;;;;;;3.80;91.29;98976.78;8297270;28;20493;-72
2022/01/17 06:26:05;;;;;;;19.50;8.18;;;;;;;3.79;91.21;98953.78;8295948;28;20057;-72
2022/01/17 06:30:07;;;;;;;16.25;6.53;;;;;;;3.70;91.40;98947.34;8297178;28;20046;-73
2022/01/17 06:34:09;;;;;;;18.30;7.93;;;;;;;3.76;90.79;98954.31;8297096;28;20042;-72
2022/01/17 06:38:10;;;;;;;20.60;8.55;;;;;;;3.75;90.20;98920.66;8295589;28;20429;-72
2022/01/17 06:42:11;;;;;;;14.52;6.45;;;;;;;3.78;89.86;98922.81;8296023;28;20041;-73
2022/01/17 06:46:15;;;;;;;18.15;6.70;;;;;;;3.79;88.98;98900.38;8296546;28;20108;-72
2022/01/17 06:50:16;;;;;;;10.40;4.43;;;;;;;3.82;88.46;98865.09;8275866;28;20068;-72
2022/01/17 06:54:17;;;;;;;14.15;6.05;;;;;;;3.88;87.51;98854.41;8296088;28;20058;-72
2022/01/17 06:58:18;;;;;;;9.75;4.53;;;;;;;3.88;87.24;98833.81;8295763;28;20521;-72
2022/01/17 07:02:19;;;;;;;13.50;5.32;;;;;;;3.89;86.80;98845.31;8295784;28;20057;-72
2022/01/17 07:06:20;;;;;;;11.73;4.63;;;;;;;3.97;85.70;98847.41;8296458;28;20494;-72
2022/01/17 07:10:21;;;;;;;9.02;4.15;;;;;;;3.97;85.72;98890.16;8295448;28;20061;-72
2022/01/17 07:14:21;;;;;;;17.15;4.18;;;;;;;4.04;84.96;98901.38;8296315;28;20381;-72
2022/01/17 07:18:22;;;;;;;9.07;3.25;;;;;;;4.11;84.47;98902.72;8294133;28;20443;-73
2022/01/17 07:22:23;;;;;;;13.23;3.05;;;;;;;4.17;83.67;98911.53;8296254;28;20081;-72
2022/01/17 07:26:24;;;;;;;9.15;3.25;;;;;;;4.20;83.75;98921.66;8296176;28;20056;-72
2022/01/17 07:30:26;;;;;;;5.55;2.70;;;;;;;4.15;83.74;98860.19;8295995;28;20054;-73
2022/01/17 07:34:27;;;;;;;8.10;2.80;;;;;;;4.17;83.57;98831.34;8261405;28;20511;-72
2022/01/17 07:38:31;;;;;;;8.30;2.97;;;;;;;4.17;83.88;98793.91;8293849;28;20132;-72
2022/01/17 07:42:32;;;;;;;7.68;2.92;;;;;;;4.14;84.49;98783.75;8295867;28;20398;-73
2022/01/17 07:46:47;;;;;;;6.85;2.97;;;;;;;4.08;85.47;98806.22;8294811;28;20050;-73
2022/01/17 07:50:48;;;;;;;6.03;3.25;;;;;;;4.12;85.91;98785.94;8295761;28;20053;-73
2022/01/17 07:54:49;;;;;;;10.10;2.97;;;;;;;4.10;86.10;98793.41;8299456;28;20073;-72
2022/01/17 07:58:53;;;;;;;5.82;2.97;;;;;;;4.11;86.47;98805.69;8298497;28;20041;-72
2022/01/17 08:02:56;;;;;;;6.63;2.85;;;;;;;4.07;87.24;98775.25;8301810;28;20057;-72
2022/01/17 08:06:57;;;;;;;8.93;3.03;;;;;;;3.98;87.89;98774.22;8301729;28;20052;-72
2022/01/17 08:11:01;;;;;;;4.85;1.83;;;;;;;4.01;88.55;98752.31;8301577;28;20050;-72
2022/01/17 08:15:04;;;;;;;2.97;1.42;;;;;;;3.97;89.26;98759.25;8266778;28;20504;-72
2022/01/17 08:19:06;;;;;;;12.30;2.65;;;;;;;3.96;89.38;98722.94;8301236;28;20049;-73
2022/01/17 08:23:08;;;;;;;3.42;1.95;;;;;;;3.99;89.26;98711.69;8301681;28;20508;-72
2022/01/17 08:27:09;;;;;;;6.13;1.80;;;;;;;3.97;89.39;98724.50;8300745;28;20115;-72
2022/01/17 08:31:09;;;;;;;3.80;1.67;;;;;;;3.96;89.45;98712.25;8300724;28;20104;-73
2022/01/17 08:35:11;;;;;;;7.50;2.03;;;;;;;3.98;89.08;98699.41;8300635;28;20060;-72
2022/01/17 08:39:12;;;;;;;9.50;1.50;;;;;;;4.00;88.73;98740.00;8299441;28;20565;-72
2022/01/17 08:43:13;;;;;;;7.28;1.60;;;;;;;4.09;87.90;98693.72;8266098;28;20509;-72
2022/01/17 08:47:15;;;;;;;1.77;1.02;;;;;;;4.13;87.39;98691.28;8300247;28;20046;-73
2022/01/17 08:51:16;;;;;;;5.93;1.52;;;;;;;4.12;87.35;98721.78;8300086;28;20116;-72
2022/01/17 08:55:17;;;;;;;5.85;1.40;;;;;;;4.16;86.46;98709.47;8300143;28;20450;-72
2022/01/17 08:59:18;;;;;;;4.63;1.55;;;;;;;4.28;85.69;98725.97;8299917;28;20056;-73
2022/01/17 09:03:19;;;;;;;3.85;1.52;;;;;;;4.32;85.61;98662.84;8298820;28;20133;-72
2022/01/17 09:07:20;;;;;;;7.05;2.30;;;;;;;4.35;85.06;98705.06;8298880;28;20057;-73
2022/01/17 09:11:24;;;;;;;51.85;23.83;;;;;;;4.40;84.93;98697.00;8299749;28;20134;-72
2022/01/17 09:15:25;;;;;;;9.85;1.90;;;;;;;4.52;84.46;98678.75;8299492;28;20053;-72
2022/01/17 09:19:29;;;;;;;6.47;1.10;;;;;;;4.60;84.42;98723.59;8299388;28;20413;-72
2022/01/17 09:23:30;;;;;;;5.60;2.22;;;;;;;4.60;84.65;98696.84;8299517;28;20049;-73
2022/01/17 09:27:31;;;;;;;6.07;3.08;;;;;;;4.64;84.55;98676.50;8298053;28;20100;-73
2022/01/17 09:31:31;;;;;;;1.65;0.80;;;;;;;4.76;84.18;98691.41;8299176;28;20073;-73
2022/01/17 09:35:33;;;;;;;3.45;1.60;;;;;;;4.81;84.00;98660.03;8298908;28;20060;-73
2022/01/17 09:39:35;;;;;;;4.68;1.50;;;;;;;4.73;86.29;98660.66;8297420;28;20489;-72
2022/01/17 09:43:36;;;;;;;6.82;2.33;;;;;;;4.67;86.69;98633.16;8298037;28;20053;-73
2022/01/17 09:47:39;;;;;;;5.18;1.60;;;;;;;4.59;87.05;98636.44;8298625;28;20049;-73
2022/01/17 09:56:01;;;;;;;2.38;1.02;;;;;;;4.56;88.60;98641.53;8298399;28;20045;-72
2022/01/17 10:00:07;;;;;;;7.63;1.95;;;;;;;4.64;89.04;98625.69;8263822;28;20050;-72
2022/01/17 10:04:09;;;;;;;13.07;8.13;;;;;;;4.61;89.62;98628.91;8297938;28;20052;-72
2022/01/17 10:08:15;;;;;;;5.13;1.77;;;;;;;4.65;89.58;98629.94;8298445;28;20050;-71
2022/01/17 10:12:16;;;;;;;7.97;2.08;;;;;;;4.68;89.33;98597.31;8298541;28;20053;-72
2022/01/17 10:16:19;;;;;;;106.70;59.65;;;;;;;4.65;90.24;98624.59;8298108;28;20060;-72
2022/01/17 10:20:20;;;;;;;5.53;2.97;;;;;;;4.66;90.94;98610.16;8296616;28;20048;-72
2022/01/17 10:36:56;;;;;;;34.40;10.60;;;;;;;4.55;94.84;98631.91;8297503;28;20077;-72
2022/01/17 10:41:00;;;;;;;61.28;25.35;;;;;;;4.38;95.51;98661.75;8295234;28;20046;-73
2022/01/17 10:45:05;;;;;;;40.70;15.48;;;;;;;4.28;96.36;98682.41;8295947;28;20038;-72
2022/01/17 10:49:06;;;;;;;12.57;5.40;;;;;;;4.17;97.85;98703.06;8297328;28;20050;-72
2022/01/17 10:53:10;;;;;;;35.80;22.98;;;;;;;4.07;98.96;98761.91;8296699;28;20056;-72
2022/01/17 10:57:13;;;;;;;3.05;1.42;;;;;;;3.79;98.56;98820.25;8297185;28;20042;-72
2022/01/17 11:01:16;;;;;;;2.47;1.02;;;;;;;3.20;96.17;98859.28;8296612;28;20053;-71
2022/01/17 11:05:19;;;;;;;8.93;1.00;;;;;;;2.81;95.07;98889.09;8296442;28;20556;-72
2022/01/17 11:09:23;;;;;;;2.08;1.10;;;;;;;2.64;95.39;98893.88;8295448;28;20050;-71
2022/01/17 11:13:31;;;;;;;5.13;0.73;;;;;;;2.61;94.88;98905.03;8296480;28;20056;-72
2022/01/17 11:17:35;;;;;;;2.58;0.85;;;;;;;2.36;95.30;98920.94;8296446;28;20049;-72
2022/01/17 11:21:37;;;;;;;6.82;1.25;;;;;;;2.22;95.35;98957.09;8296366;28;20465;-72
2022/01/17 11:25:43;;;;;;;3.63;1.10;;;;;;;2.11;95.58;98981.00;8296399;28;20129;-71
2022/01/17 11:29:44;;;;;;;10.48;4.15;;;;;;;2.15;95.38;98975.19;8300804;28;20088;-72
2022/01/17 11:33:46;;;;;;;8.65;2.25;;;;;;;2.17;95.64;98986.38;8301980;28;20042;-72
2022/01/17 11:37:50;;;;;;;6.38;1.63;;;;;;;2.13;95.24;98962.09;8302668;28;20042;-72
2022/01/17 11:41:50;;;;;;;3.92;1.67;;;;;;;2.18;95.31;98948.00;8302747;28;20486;-72
2022/01/17 11:45:53;;;;;;;7.95;1.50;;;;;;;2.22;94.82;98970.44;8302297;28;20135;-71
2022/01/17 11:49:57;;;;;;;216.13;42.53;;;;;;;2.26;94.57;98960.84;8302566;28;20412;-72
2022/01/17 11:54:08;;;;;;;280.90;44.80;;;;;;;2.25;93.60;98988.56;8302739;28;20062;-72
2022/01/17 11:58:40;;;;;;;41.63;15.43;;;;;;;2.21;93.42;98972.28;8302071;28;20104;-72
2022/01/17 12:02:41;;;;;;;109.28;19.63;;;;;;;2.24;92.81;98994.94;8302295;28;20045;-72
2022/01/17 12:06:41;;;;;;;25.27;9.57;;;;;;;2.08;91.98;99002.84;8300794;28;20056;-73
2022/01/17 12:11:07;;;;;;;229.55;62.03;;;;;;;2.17;91.66;98999.72;8301823;28;20046;-73
2022/01/17 12:15:15;;;;;;;17.80;6.93;;;;;;;2.13;92.25;99026.84;8301675;28;20058;-72
2022/01/17 12:19:16;;;;;;;5.60;2.13;;;;;;;2.24;91.92;99042.91;8301459;28;20054;-72
2022/01/17 12:23:27;;;;;;;5.10;1.60;;;;;;;2.19;91.63;99035.69;8300051;28;20464;-72
2022/01/17 12:27:28;;;;;;;48.03;12.52;;;;;;;2.17;91.30;99042.34;8301107;28;20050;-71
2022/01/17 12:31:46;;;;;;;55.17;15.13;;;;;;;2.26;90.82;99024.81;8300152;28;20042;-72
2022/01/17 12:35:48;;;;;;;17.05;5.95;;;;;;;2.24;90.71;99013.59;8283714;28;20152;-72
2022/01/17 12:39:51;;;;;;;8.50;2.63;;;;;;;2.22;90.97;99023.72;8299786;28;20046;-72
2022/01/17 12:43:52;;;;;;;6.35;1.88;;;;;;;2.10;91.25;99064.66;8300522;28;20081;-72
2022/01/17 12:47:54;;;;;;;138.80;35.35;;;;;;;2.19;91.11;99045.53;8301145;28;20050;-72
2022/01/17 12:51:56;;;;;;;30.33;9.93;;;;;;;2.09;92.17;99062.25;8300519;28;20456;-72
2022/01/17 12:55:59;;;;;;;10.48;3.80;;;;;;;2.72;93.54;99058.66;8300327;28;20119;-72
2022/01/17 13:00:04;;;;;;;23.25;7.40;;;;;;;3.43;93.57;99066.97;8300374;28;20053;-72
2022/01/17 13:04:08;;;;;;;31.63;10.43;;;;;;;3.85;90.59;99079.34;8298749;28;20046;-73
2022/01/17 13:08:09;;;;;;;13.38;4.50;;;;;;;4.68;84.88;99089.47;8298843;28;20050;-73
2022/01/17 13:12:10;;;;;;;9.13;2.20;;;;;;;5.07;83.76;99107.59;8299962;28;20145;-73
2022/01/17 13:16:12;;;;;;;8.57;1.95;;;;;;;5.36;77.54;99132.63;8299949;28;20409;-73
2022/01/17 13:20:12;;;;;;;9.23;1.92;;;;;;;5.23;79.34;99117.19;8299669;28;20469;-74
2022/01/17 13:24:20;;;;;;;7.13;2.05;;;;;;;5.45;77.65;99131.00;8280795;28;20054;-73
2022/01/17 13:28:21;;;;;;;7.20;2.10;;;;;;;5.09;79.48;99137.53;8299198;28;20053;-73
2022/01/17 13:32:21;;;;;;;8.40;2.20;;;;;;;4.62;79.86;99138.69;8298194;28;20041;-72
2022/01/17 13:36:29;;;;;;;6.88;1.92;;;;;;;4.53;80.23;99145.66;8298837;28;20398;-72
2022/01/17 13:40:33;;;;;;;9.47;2.30;;;;;;;4.58;80.42;99164.38;8299093;28;20080;-72
2022/01/17 13:44:36;;;;;;;50.30;14.07;;;;;;;4.61;78.52;99169.19;8297814;28;20053;-72
2022/01/17 13:48:37;;;;;;;89.10;18.73;;;;;;;4.40;78.76;99178.28;8298980;28;20050;-72
2022/01/17 13:52:38;;;;;;;50.05;14.43;;;;;;;4.38;79.13;99183.09;8296934;28;20555;-73
2022/01/17 13:56:39;;;;;;;7.80;2.38;;;;;;;4.05;78.63;99186.25;8298464;28;20413;-72
2022/01/17 14:00:48;;;;;;;8.93;2.08;;;;;;;3.99;77.50;99193.44;8280311;28;20485;-72
2022/01/17 14:04:49;;;;;;;6.35;2.05;;;;;;;3.79;78.17;99225.44;8298373;28;20054;-73
2022/01/17 14:08:53;;;;;;;319.17;69.28;;;;;;;3.68;77.96;99243.31;8298126;28;20046;-73
2022/01/17 14:12:53;;;;;;;281.67;60.38;;;;;;;3.59;75.49;99263.56;8297824;28;20489;-72
2022/01/17 14:16:56;;;;;;;1999.90;624.40;;;;;;;3.68;75.29;99267.34;8297883;28;20065;-72
2022/01/17 14:20:56;;;;;;;29.73;11.68;;;;;;;3.87;73.29;99285.56;8298024;28;20132;-72
2022/01/17 14:24:57;;;;;;;12.18;5.00;;;;;;;3.85;72.02;99282.38;8297441;28;20054;-72
2022/01/17 14:28:58;;;;;;;14.07;5.85;;;;;;;3.82;72.23;99289.84;8297605;28;20074;-72
2022/01/17 14:33:17;;;;;;;9.25;3.78;;;;;;;3.69;71.34;99303.66;8297451;28;20053;-72
2022/01/17 14:37:27;;;;;;;12.73;3.45;;;;;;;3.43;71.49;99306.44;8297345;28;20046;-73
2022/01/17 14:41:48;;;;;;;12.63;2.97;;;;;;;3.17;70.18;99318.81;8297007;28;20046;-72
2022/01/17 14:45:49;;;;;;;8.88;2.35;;;;;;;2.82;70.71;99362.78;8262248;28;20056;-73
2022/01/17 14:49:56;;;;;;;8.77;2.25;;;;;;;2.61;71.01;99368.94;8297117;28;20056;-73
2022/01/17 14:53:58;;;;;;;10.10;2.08;;;;;;;2.44;68.63;99389.53;8296865;28;20077;-72
2022/01/17 15:02:33;;;;;;;8.98;1.90;;;;;;;2.08;70.48;99434.41;8296068;28;20119;-72
2022/01/17 15:06:34;;;;;;;6.72;2.28;;;;;;;1.99;69.70;99457.19;8296524;28;20073;-71
2022/01/17 15:10:40;;;;;;;5.65;2.22;;;;;;;1.92;68.73;99455.72;8296912;28;20088;-72
2022/01/17 15:14:41;;;;;;;12.63;2.10;;;;;;;1.71;71.23;99473.25;8296753;28;20509;-72
2022/01/17 15:18:41;;;;;;;18.40;3.28;;;;;;;1.60;71.53;99490.09;8296684;28;20192;-72
2022/01/17 15:22:42;;;;;;;15.02;3.05;;;;;;;1.49;72.57;99498.94;8296422;28;20050;-72
2022/01/17 15:26:43;;;;;;;9.75;2.85;;;;;;;1.42;72.48;99519.59;8296289;28;20062;-71
2022/01/17 15:30:44;;;;;;;14.18;2.60;;;;;;;1.35;73.38;99541.03;8296581;28;20460;-72
2022/01/17 15:34:46;;;;;;;17.02;4.78;;;;;;;1.25;73.70;99552.31;8296262;28;20104;-72
2022/01/17 15:38:47;;;;;;;16.92;3.38;;;;;;;1.22;73.02;99568.72;8296496;28;20045;-72
2022/01/17 15:42:49;;;;;;;12.77;4.65;;;;;;;1.17;72.98;99576.59;8295232;28;20054;-71
2022/01/17 15:46:50;;;;;;;14.70;3.60;;;;;;;1.13;73.00;99591.44;8295401;28;20058;-72
2022/01/17 15:50:51;;;;;;;32.08;11.57;;;;;;;1.05;73.68;99605.09;8293591;28;20054;-72
2022/01/17 15:54:55;;;;;;;16.35;5.32;;;;;;;1.10;72.96;99607.88;8294049;28;20144;-72
2022/01/17 15:58:55;;;;;;;22.13;4.43;;;;;;;1.07;72.85;99618.97;8295410;28;20061;-72
2022/01/17 16:02:57;;;;;;;14.15;5.82;;;;;;;1.01;72.86;99619.09;8294607;28;20077;-72
2022/01/17 16:06:58;;;;;;;16.02;3.35;;;;;;;0.86;74.14;99622.22;8296493;28;20130;-72
2022/01/17 16:10:59;;;;;;;14.93;3.80;;;;;;;0.84;74.12;99630.47;8296382;28;20050;-72
2022/01/17 16:14:59;;;;;;;27.10;7.30;;;;;;;0.84;74.21;99640.28;8297595;28;20433;-72
2022/01/17 16:19:03;;;;;;;16.98;5.03;;;;;;;0.80;74.65;99649.75;8300809;28;20045;-72
2022/01/17 16:23:04;;;;;;;21.98;7.60;;;;;;;0.74;75.26;99671.97;8300063;28;20042;-72
2022/01/17 16:27:05;;;;;;;20.95;6.35;;;;;;;0.64;75.85;99687.66;8300802;28;20042;-72
2022/01/17 16:31:06;;;;;;;34.78;12.88;;;;;;;0.66;75.28;99691.72;8301049;28;20050;-71
2022/01/17 16:35:08;;;;;;;18.67;4.43;;;;;;;0.75;74.23;99694.81;8299368;28;20061;-72
2022/01/17 16:39:09;;;;;;;25.35;4.53;;;;;;;0.74;74.44;99709.19;8300456;28;20049;-72
2022/01/17 16:43:10;;;;;;;20.10;4.85;;;;;;;0.75;74.45;99721.41;8282208;28;20046;-72
2022/01/17 16:47:11;;;;;;;13.00;3.20;;;;;;;0.68;75.48;99749.97;8300738;28;20080;-72
2022/01/17 16:51:12;;;;;;;24.60;6.93;;;;;;;0.66;75.90;99775.97;8298387;28;20464;-71
2022/01/17 16:55:13;;;;;;;19.83;5.10;;;;;;;0.67;76.22;99775.75;8299782;28;20061;-72
2022/01/17 16:59:14;;;;;;;21.60;4.25;;;;;;;0.70;76.40;99793.88;8299472;28;20447;-72
2022/01/17 17:03:15;;;;;;;19.77;4.55;;;;;;;0.68;76.44;99803.13;8298976;28;20049;-72
2022/01/17 17:07:17;;;;;;;15.57;3.38;;;;;;;0.71;75.64;99810.63;8299922;28;20493;-72
2022/01/17 17:11:18;;;;;;;15.35;4.38;;;;;;;0.73;75.58;99809.38;8299879;28;20493;-73
2022/01/17 17:15:20;;;;;;;15.98;3.25;;;;;;;0.71;75.78;99831.91;8298633;28;20049;-72
2022/01/17 17:19:21;;;;;;;14.57;3.65;;;;;;;0.79;75.22;99844.91;8299045;28;20125;-73
2022/01/17 17:23:23;;;;;;;17.15;4.05;;;;;;;0.81;75.68;99850.78;8279809;28;20659;-73
2022/01/17 17:27:24;;;;;;;23.50;5.90;;;;;;;0.83;75.91;99848.72;8288242;28;20181;-72
2022/01/17 17:31:25;;;;;;;18.83;4.47;;;;;;;0.87;75.74;99857.84;8298568;28;20136;-72
2022/01/17 17:35:26;;;;;;;20.65;4.53;;;;;;;0.91;75.32;99869.66;8298750;28;20296;-71
2022/01/17 17:39:26;;;;;;;16.10;3.83;;;;;;;0.93;75.45;99878.22;8298984;28;20274;-72
2022/01/17 17:43:27;;;;;;;26.25;6.78;;;;;;;0.93;75.35;99886.19;8298581;28;20153;-72
2022/01/17 17:47:28;;;;;;;26.75;5.28;;;;;;;0.87;75.69;99895.09;8297683;28;20050;-72
2022/01/17 17:51:29;;;;;;;24.17;6.00;;;;;;;0.76;75.35;99903.81;8279217;28;20077;-72
2022/01/17 17:55:30;;;;;;;22.85;4.25;;;;;;;0.68;76.18;99909.47;8297642;28;20103;-71
2022/01/17 17:59:32;;;;;;;20.88;4.55;;;;;;;0.64;76.00;99916.25;8298402;28;20096;-72
2022/01/17 18:03:34;;;;;;;18.27;4.25;;;;;;;0.54;76.49;99932.72;8297710;28;20438;-71
2022/01/17 18:07:34;;;;;;;21.08;4.05;;;;;;;0.46;76.64;99941.03;8297813;28;20073;-72
2022/01/17 18:11:37;;;;;;;29.92;6.38;;;;;;;0.42;76.84;99945.94;8298425;28;20112;-72
2022/01/17 18:15:38;;;;;;;23.77;4.60;;;;;;;0.31;77.24;99964.50;8297146;28;20046;-72
2022/01/17 18:19:38;;;;;;;26.08;4.72;;;;;;;0.27;77.40;99961.44;8297179;28;20064;-72
2022/01/17 18:23:40;;;;;;;24.42;5.13;;;;;;;0.29;77.15;99978.00;8297329;28;20077;-72
2022/01/17 18:27:41;;;;;;;19.70;4.90;;;;;;;0.21;77.67;99986.22;8262491;28;20050;-72
2022/01/17 18:31:42;;;;;;;38.33;8.60;;;;;;;0.22;77.66;99987.88;8296094;28;20053;-71
2022/01/17 18:35:43;;;;;;;21.15;4.22;;;;;;;0.15;77.70;99997.75;8296306;28;20046;-72
2022/01/17 18:39:43;;;;;;;41.95;7.45;;;;;;;0.11;77.84;99991.25;8294241;28;20555;-72
2022/01/17 18:43:45;;;;;;;26.20;9.38;;;;;;;0.10;78.05;99997.59;8295813;28;20553;-73
2022/01/17 18:47:45;;;;;;;20.02;3.55;;;;;;;0.12;77.95;100008.00;8294963;28;20038;-72
2022/01/17 18:51:48;;;;;;;23.50;3.63;;;;;;;0.09;77.66;100019.88;8276735;28;20445;-72
2022/01/17 18:55:49;;;;;;;22.77;5.10;;;;;;;0.07;78.11;100021.94;8278956;28;20050;-72
2022/01/17 18:59:50;;;;;;;23.75;4.20;;;;;;;0.03;78.14;100026.06;8269226;28;20050;-72
2022/01/17 19:03:51;;;;;;;29.58;3.78;;;;;;;0.00;78.40;100031.81;8284935;28;20054;-72
2022/01/17 19:07:52;;;;;;;17.60;3.47;;;;;;;-0.06;78.59;100053.94;8260505;28;20136;-72
2022/01/17 19:11:53;;;;;;;16.85;3.83;;;;;;;-0.09;78.68;100051.69;8290471;28;20537;-73
2022/01/17 19:15:54;;;;;;;13.23;3.38;;;;;;;-0.16;79.23;100061.56;8245041;28;20082;-72
2022/01/17 19:20:08;;;;;;;19.63;4.50;;;;;;;-0.11;78.83;100067.03;8272892;28;20482;-72
2022/01/17 19:24:11;;;;;;;23.38;4.18;;;;;;;-0.16;79.42;100069.53;8295826;28;20050;-73
2022/01/17 19:28:14;;;;;;;17.60;4.22;;;;;;;-0.18;79.59;100076.88;8295306;28;20501;-72
2022/01/17 19:32:16;;;;;;;18.90;4.15;;;;;;;-0.16;79.30;100074.84;8293658;28;20057;-72
2022/01/17 19:36:18;;;;;;;25.33;4.03;;;;;;;-0.16;78.89;100074.84;8294688;28;20433;-72